createdAt,value
2023-04-29T00:01:37.758Z,17.92
2023-04-29T00:04:06.188Z,17.88
2023-04-29T00:06:33.203Z,19.00
2023-04-29T00:09:00.145Z,19.02
2023-04-29T00:11:26.990Z,21.10
2023-04-29T00:13:53.813Z,19.17
2023-04-29T00:16:20.731Z,21.67
2023-04-29T00:18:47.513Z,22.38
2023-04-29T00:21:14.313Z,21.08
2023-04-29T00:23:41.091Z,19.63
2023-04-29T00:26:07.919Z,20.63
2023-04-29T00:28:34.667Z,18.88
2023-04-29T00:31:01.484Z,21.33
2023-04-29T00:33:28.279Z,18.38
2023-04-29T00:35:55.077Z,20.33
2023-04-29T00:38:21.966Z,19.52
2023-04-29T00:40:48.931Z,20.75
2023-04-29T00:43:15.867Z,24.38
2023-04-29T00:45:42.909Z,22.92
2023-04-29T00:48:09.796Z,22.25
2023-04-29T00:50:36.848Z,20.13
2023-04-29T00:53:04.188Z,19.83
2023-04-29T00:55:32.990Z,22.52
2023-04-29T00:58:00.665Z,19.60
2023-04-29T01:00:28.119Z,18.88
2023-04-29T01:02:57.465Z,20.70
2023-04-29T01:05:25.225Z,23.63
2023-04-29T01:08:10.456Z,21.00
2023-04-29T01:10:47.085Z,21.20
2023-04-29T01:13:18.168Z,21.25
2023-04-29T01:15:59.018Z,19.52
2023-04-29T01:18:39.276Z,22.88
2023-04-29T01:21:06.316Z,22.65
2023-04-29T01:23:33.026Z,18.98
2023-04-29T01:26:00.089Z,19.90
2023-04-29T01:28:39.271Z,21.83
2023-04-29T01:31:19.899Z,20.05
2023-04-29T01:34:06.111Z,20.75
2023-04-29T01:36:57.449Z,20.17
2023-04-29T01:39:37.022Z,17.27
2023-04-29T01:42:14.928Z,21.30
2023-04-29T01:44:43.608Z,30.73
2023-04-29T01:47:13.800Z,22.65
2023-04-29T01:49:41.065Z,17.40
2023-04-29T01:52:07.906Z,20.35
2023-04-29T01:54:38.309Z,20.42
2023-04-29T01:57:05.040Z,19.85
2023-04-29T01:59:31.894Z,20.75
2023-04-29T02:01:59.045Z,19.38
2023-04-29T02:04:26.379Z,17.55
2023-04-29T02:06:53.118Z,24.85
2023-04-29T02:09:19.897Z,21.42
2023-04-29T02:11:46.651Z,20.27
2023-04-29T02:14:13.834Z,19.05
2023-04-29T02:16:40.900Z,19.27
2023-04-29T02:19:07.615Z,19.80
2023-04-29T02:21:35.189Z,21.85
2023-04-29T02:24:03.966Z,21.02
2023-04-29T02:26:30.802Z,21.10
2023-04-29T02:28:57.985Z,20.98
2023-04-29T02:31:24.891Z,24.83
2023-04-29T02:33:51.678Z,17.08
2023-04-29T02:36:18.469Z,20.58
2023-04-29T02:38:45.162Z,19.10
2023-04-29T02:41:17.095Z,19.77
2023-04-29T02:43:44.518Z,21.00
2023-04-29T02:46:11.566Z,21.30
2023-04-29T02:48:38.437Z,22.63
2023-04-29T02:51:05.198Z,17.52
2023-04-29T02:53:32.646Z,25.55
2023-04-29T02:55:59.509Z,21.40
2023-04-29T02:58:27.008Z,20.88
2023-04-29T03:00:53.920Z,23.88
2023-04-29T03:03:20.803Z,18.15
2023-04-29T03:05:47.612Z,22.88
2023-04-29T03:08:15.349Z,22.27
2023-04-29T03:10:42.830Z,23.38
2023-04-29T03:13:09.603Z,20.55
2023-04-29T03:15:37.025Z,23.58
2023-04-29T03:18:04.946Z,21.17
2023-04-29T03:20:32.704Z,18.23
2023-04-29T03:23:00.901Z,20.95
2023-04-29T03:25:28.701Z,19.95
2023-04-29T03:27:55.448Z,20.70
2023-04-29T03:30:22.365Z,21.25
2023-04-29T03:32:49.359Z,27.15
2023-04-29T03:35:16.229Z,25.63
2023-04-29T03:37:44.720Z,24.13
2023-04-29T03:40:12.457Z,18.65
2023-04-29T03:42:39.247Z,19.45
2023-04-29T03:45:06.895Z,17.85
2023-04-29T03:47:33.801Z,20.63
2023-04-29T03:50:00.630Z,20.20
2023-04-29T03:52:27.592Z,23.95
2023-04-29T03:54:54.437Z,20.73
2023-04-29T03:57:21.216Z,18.30
2023-04-29T03:59:50.747Z,21.13
2023-04-29T04:02:19.231Z,19.63
2023-04-29T04:04:46.272Z,19.80
2023-04-29T04:07:13.211Z,24.65
2023-04-29T04:09:39.944Z,21.70
2023-04-29T04:12:06.893Z,24.27
2023-04-29T04:14:34.774Z,27.58
2023-04-29T04:17:01.578Z,21.52
2023-04-29T04:19:29.253Z,24.85
2023-04-29T04:21:56.320Z,20.05
2023-04-29T04:24:23.540Z,20.77
2023-04-29T04:26:50.382Z,20.02
2023-04-29T04:29:17.316Z,23.25
2023-04-29T04:31:46.311Z,20.63
2023-04-29T04:34:14.182Z,20.88
2023-04-29T04:36:41.427Z,21.88
2023-04-29T04:39:08.443Z,17.67
2023-04-29T04:41:35.859Z,18.48
2023-04-29T04:44:03.093Z,22.75
2023-04-29T04:46:29.852Z,19.55
2023-04-29T04:48:56.785Z,22.13
2023-04-29T04:51:23.507Z,20.63
2023-04-29T04:53:52.716Z,22.70
2023-04-29T04:56:21.176Z,19.63
2023-04-29T04:58:47.917Z,21.90
2023-04-29T05:01:14.757Z,21.00
2023-04-29T05:03:41.675Z,23.75
2023-04-29T05:06:08.550Z,19.98
2023-04-29T05:08:35.378Z,22.02
2023-04-29T05:11:02.133Z,17.67
2023-04-29T05:13:29.091Z,22.13
2023-04-29T05:15:56.215Z,17.23
2023-04-29T05:18:22.935Z,19.67
2023-04-29T05:20:49.762Z,22.70
2023-04-29T05:23:16.719Z,19.13
2023-04-29T05:25:43.848Z,22.00
2023-04-29T05:28:10.614Z,15.18
2023-04-29T05:30:40.556Z,20.92
2023-04-29T05:33:07.845Z,17.50
2023-04-29T05:35:34.931Z,19.00
2023-04-29T05:38:01.589Z,18.65
2023-04-29T05:40:28.313Z,14.82
2023-04-29T05:42:55.241Z,17.67
2023-04-29T05:45:22.142Z,18.60
2023-04-29T05:47:49.164Z,18.95
2023-04-29T05:50:15.860Z,22.67
2023-04-29T05:52:42.650Z,19.55
2023-04-29T05:55:09.797Z,18.95
2023-04-29T05:57:36.530Z,18.88
2023-04-29T06:00:03.905Z,17.25
2023-04-29T06:02:31.106Z,18.88
2023-04-29T06:04:58.138Z,19.95
2023-04-29T06:07:25.902Z,19.15
2023-04-29T06:09:52.876Z,19.50
2023-04-29T06:12:19.735Z,20.60
2023-04-29T06:14:46.579Z,19.05
2023-04-29T06:17:13.276Z,15.82
2023-04-29T06:19:40.124Z,21.83
2023-04-29T06:22:08.426Z,18.40
2023-04-29T06:24:35.263Z,21.45
2023-04-29T06:27:04.312Z,20.95
2023-04-29T06:29:31.098Z,18.45
2023-04-29T06:31:57.815Z,23.38
2023-04-29T06:34:24.573Z,22.15
2023-04-29T06:36:51.356Z,18.25
2023-04-29T06:39:18.253Z,19.42
2023-04-29T06:41:44.977Z,17.42
2023-04-29T06:44:12.100Z,19.25
2023-04-29T06:46:39.302Z,14.20
2023-04-29T06:49:07.037Z,18.67
2023-04-29T06:51:33.909Z,15.80
2023-04-29T06:54:00.619Z,16.30
2023-04-29T06:56:27.406Z,17.30
2023-04-29T06:58:54.326Z,17.40
2023-04-29T07:01:21.509Z,18.80
2023-04-29T07:03:48.430Z,19.33
2023-04-29T07:06:15.365Z,17.80
2023-04-29T07:08:42.122Z,18.23
2023-04-29T07:11:08.878Z,14.50
2023-04-29T07:13:35.721Z,17.20
2023-04-29T07:16:02.435Z,17.88
2023-04-29T07:18:29.170Z,16.50
2023-04-29T07:21:00.404Z,21.88
2023-04-29T07:23:27.276Z,21.95
2023-04-29T07:25:53.945Z,19.10
2023-04-29T07:28:20.602Z,19.92
2023-04-29T07:30:47.300Z,15.50
2023-04-29T07:33:14.075Z,16.30
2023-04-29T07:35:43.272Z,17.38
2023-04-29T07:38:10.204Z,18.27
2023-04-29T07:40:36.972Z,16.30
2023-04-29T07:43:05.853Z,16.52
2023-04-29T07:45:32.602Z,18.73
2023-04-29T07:47:59.534Z,16.50
2023-04-29T07:50:26.263Z,16.65
2023-04-29T07:52:55.116Z,18.02
2023-04-29T07:55:21.844Z,13.30
2023-04-29T07:57:48.584Z,20.60
2023-04-29T08:00:15.579Z,17.70
2023-04-29T08:02:44.104Z,19.15
2023-04-29T08:05:11.320Z,21.05
2023-04-29T08:07:38.223Z,21.13
2023-04-29T08:10:05.352Z,28.95
2023-04-29T08:12:32.113Z,29.25
2023-04-29T08:14:58.798Z,17.95
2023-04-29T08:17:25.510Z,23.92
2023-04-29T08:19:52.190Z,17.00
2023-04-29T08:22:19.539Z,18.92
2023-04-29T08:24:46.363Z,14.15
2023-04-29T08:27:13.076Z,16.30
2023-04-29T08:29:39.991Z,13.18
2023-04-29T08:32:07.021Z,13.77
2023-04-29T08:34:36.371Z,15.23
2023-04-29T08:37:03.523Z,18.45
2023-04-29T08:39:34.889Z,10.80
2023-04-29T08:42:12.484Z,15.90
2023-04-29T08:44:42.573Z,24.35
2023-04-29T08:47:10.038Z,13.95
2023-04-29T08:49:41.176Z,14.48
2023-04-29T08:52:10.706Z,23.58
2023-04-29T08:54:42.876Z,14.80
2023-04-29T08:57:14.745Z,22.60
2023-04-29T08:59:46.075Z,23.63
2023-04-29T09:02:20.575Z,17.80
2023-04-29T09:05:12.295Z,25.45
2023-04-29T09:07:42.534Z,16.15
2023-04-29T09:10:18.506Z,11.75
2023-04-29T09:12:57.380Z,15.25
2023-04-29T09:15:26.835Z,15.75
2023-04-29T09:17:53.826Z,18.70
2023-04-29T09:20:23.732Z,17.20
2023-04-29T09:22:51.337Z,14.65
2023-04-29T09:25:18.195Z,15.23
2023-04-29T09:27:45.248Z,14.82
2023-04-29T09:30:16.828Z,13.00
2023-04-29T09:33:11.157Z,14.30
2023-04-29T09:35:53.456Z,13.20
2023-04-29T09:38:21.401Z,14.05
2023-04-29T09:40:59.132Z,17.90
2023-04-29T09:43:47.356Z,20.92
2023-04-29T09:46:14.885Z,13.88
2023-04-29T09:49:01.771Z,15.35
2023-04-29T09:51:48.048Z,18.02
2023-04-29T09:54:22.464Z,14.23
2023-04-29T09:56:54.855Z,17.67
2023-04-29T09:59:22.760Z,12.70
2023-04-29T10:01:54.851Z,14.93
2023-04-29T10:04:23.603Z,14.48
2023-04-29T10:06:53.528Z,16.05
2023-04-29T10:09:23.722Z,12.32
2023-04-29T10:14:23.041Z,15.55
2023-04-29T10:17:02.216Z,14.13
2023-04-29T10:19:36.572Z,14.45
2023-04-29T10:22:17.000Z,19.77
2023-04-29T10:24:45.171Z,13.88
2023-04-29T10:27:13.143Z,14.40
2023-04-29T10:29:41.613Z,12.95
2023-04-29T10:32:12.562Z,13.65
2023-04-29T10:34:42.295Z,13.75
2023-04-29T10:37:11.658Z,14.27
2023-04-29T10:40:07.719Z,10.83
2023-04-29T10:42:45.267Z,12.00
2023-04-29T10:45:32.833Z,13.43
2023-04-29T10:48:03.189Z,14.05
2023-04-29T10:50:30.710Z,15.63
2023-04-29T10:52:58.624Z,11.45
2023-04-29T10:55:25.934Z,9.93
2023-04-29T10:57:57.273Z,13.55
2023-04-29T11:00:34.966Z,10.38
2023-04-29T11:03:05.606Z,10.25
2023-04-29T11:05:39.010Z,12.48
2023-04-29T11:08:24.336Z,12.60
2023-04-29T11:10:54.730Z,10.20
2023-04-29T11:13:23.883Z,10.32
2023-04-29T11:15:52.668Z,11.98
2023-04-29T11:18:19.589Z,14.32
2023-04-29T11:21:12.844Z,10.65
2023-04-29T11:23:45.185Z,13.73
2023-04-29T11:26:13.098Z,12.80
2023-04-29T11:28:43.448Z,11.73
2023-04-29T11:31:10.346Z,12.02
2023-04-29T11:33:37.222Z,9.75
2023-04-29T11:36:06.690Z,11.57
2023-04-29T11:38:33.513Z,9.50
2023-04-29T11:41:00.767Z,10.38
2023-04-29T11:43:27.570Z,10.32
2023-04-29T11:45:54.561Z,7.97
2023-04-29T11:48:25.768Z,8.55
2023-04-29T11:50:56.626Z,12.80
2023-04-29T11:53:25.978Z,10.23
2023-04-29T11:55:56.270Z,7.93
2023-04-29T11:58:25.193Z,11.15
2023-04-29T12:00:53.312Z,16.02
2023-04-29T12:03:21.155Z,12.27
2023-04-29T12:05:50.774Z,6.82
2023-04-29T12:08:28.898Z,10.98
2023-04-29T12:10:58.085Z,10.18
2023-04-29T12:13:32.043Z,10.13
2023-04-29T12:15:59.419Z,11.75
2023-04-29T12:18:30.201Z,11.40
2023-04-29T12:20:57.214Z,8.77
2023-04-29T12:23:28.428Z,9.07
2023-04-29T12:26:00.323Z,14.30
2023-04-29T12:28:27.530Z,11.23
2023-04-29T12:30:55.456Z,12.73
2023-04-29T12:33:24.420Z,6.45
2023-04-29T12:36:00.207Z,8.15
2023-04-29T12:38:29.722Z,8.68
2023-04-29T12:40:58.908Z,12.80
2023-04-29T12:43:29.182Z,9.63
2023-04-29T12:48:58.658Z,9.98
2023-04-29T12:51:25.432Z,10.93
2023-04-29T12:53:54.747Z,10.93
2023-04-29T12:56:22.036Z,7.70
2023-04-29T12:58:48.815Z,12.90
2023-04-29T13:01:18.441Z,11.18
2023-04-29T13:03:45.602Z,10.93
2023-04-29T13:06:12.673Z,15.77
2023-04-29T13:08:39.386Z,13.07
2023-04-29T13:11:07.518Z,12.48
2023-04-29T13:13:34.291Z,9.32
2023-04-29T13:16:00.989Z,10.63
2023-04-29T13:18:27.742Z,9.82
2023-04-29T13:20:54.632Z,6.75
2023-04-29T13:23:21.554Z,8.15
2023-04-29T13:25:50.081Z,10.68
2023-04-29T13:28:17.028Z,12.80
2023-04-29T13:30:43.772Z,10.50
2023-04-29T13:33:12.640Z,10.65
2023-04-29T13:35:41.643Z,13.07
2023-04-29T13:38:09.025Z,9.25
2023-04-29T13:40:39.341Z,11.27
2023-04-29T13:43:13.813Z,11.05
2023-04-29T13:45:45.546Z,9.13
2023-04-29T13:48:37.646Z,14.60
2023-04-29T13:58:58.285Z,8.88
2023-04-29T14:01:48.140Z,9.43
2023-04-29T14:04:03.763Z,8.27
2023-04-29T14:06:32.344Z,9.63
2023-04-29T14:09:00.515Z,12.45
2023-04-29T14:11:28.668Z,10.10
2023-04-29T14:13:55.396Z,13.00
2023-04-29T14:16:22.100Z,14.00
2023-04-29T14:18:48.846Z,14.07
2023-04-29T14:21:16.249Z,12.25
2023-04-29T14:23:42.936Z,11.07
2023-04-29T14:28:39.261Z,11.95
2023-04-29T14:31:06.281Z,13.85
2023-04-29T14:33:33.049Z,14.38
2023-04-29T14:36:00.993Z,8.50
2023-04-29T14:38:27.712Z,12.35
2023-04-29T14:40:54.438Z,12.27
2023-04-29T14:43:21.143Z,15.93
2023-04-29T14:45:48.322Z,8.65
2023-04-29T14:48:15.075Z,13.75
2023-04-29T14:50:41.736Z,9.85
2023-04-29T14:53:08.780Z,10.43
2023-04-29T14:55:35.521Z,13.77
2023-04-29T14:58:04.953Z,15.00
2023-04-29T15:00:32.216Z,14.93
2023-04-29T15:02:59.256Z,21.48
2023-04-29T15:05:26.136Z,20.30
2023-04-29T15:07:52.921Z,19.02
2023-04-29T15:10:19.657Z,15.10
2023-04-29T15:12:46.329Z,15.45
2023-04-29T15:15:13.020Z,11.50
2023-04-29T15:17:39.925Z,9.13
2023-04-29T15:20:07.673Z,9.52
2023-04-29T15:22:34.353Z,11.93
2023-04-29T15:25:01.247Z,11.93
2023-04-29T15:27:28.672Z,14.90
2023-04-29T15:29:57.394Z,15.52
2023-04-29T15:32:31.629Z,14.38
2023-04-29T15:35:02.540Z,12.80
2023-04-29T15:37:29.761Z,17.08
2023-04-29T15:40:01.584Z,24.65
2023-04-29T15:42:28.544Z,14.80
2023-04-29T15:44:55.312Z,13.93
2023-04-29T15:47:23.448Z,14.68
2023-04-29T15:49:53.589Z,13.43
2023-04-29T15:54:47.050Z,15.80
2023-04-29T15:57:14.046Z,17.52
2023-04-29T15:59:42.375Z,11.70
2023-04-29T16:02:10.945Z,15.05
2023-04-29T16:04:38.633Z,14.02
2023-04-29T16:07:07.074Z,15.40
2023-04-29T16:09:35.905Z,13.93
2023-04-29T16:12:02.605Z,15.07
2023-04-29T16:14:30.024Z,13.60
2023-04-29T16:16:56.929Z,12.65
2023-04-29T16:19:23.753Z,13.32
2023-04-29T16:21:50.430Z,17.23
2023-04-29T16:24:17.201Z,13.93
2023-04-29T16:26:44.024Z,14.40
2023-04-29T16:29:12.505Z,13.60
2023-04-29T16:31:39.883Z,11.77
2023-04-29T16:34:06.662Z,16.63
2023-04-29T16:36:33.726Z,13.75
2023-04-29T16:39:00.574Z,17.52
2023-04-29T16:41:27.534Z,15.90
2023-04-29T16:43:54.242Z,17.27
2023-04-29T16:46:21.732Z,15.88
2023-04-29T16:48:51.330Z,18.20
2023-04-29T16:51:20.794Z,18.58
2023-04-29T16:53:47.459Z,18.93
2023-04-29T16:56:14.376Z,19.42
2023-04-29T16:58:41.208Z,21.48
2023-04-29T17:01:08.170Z,26.48
2023-04-29T17:03:35.671Z,27.95
2023-04-29T17:06:02.917Z,41.38
2023-04-29T17:08:29.733Z,40.15
2023-04-29T17:10:56.466Z,37.58
2023-04-29T17:13:23.236Z,39.13
2023-04-29T17:15:50.124Z,34.97
2023-04-29T17:18:16.861Z,29.23
2023-04-29T17:20:43.801Z,33.08
2023-04-29T17:23:12.645Z,27.00
2023-04-29T17:25:42.295Z,31.17
2023-04-29T17:28:09.037Z,34.40
2023-04-29T17:30:35.807Z,34.65
2023-04-29T17:33:07.636Z,38.40
2023-04-29T17:35:35.455Z,40.53
2023-04-29T17:38:07.441Z,37.15
2023-04-29T17:40:35.703Z,38.30
2023-04-29T17:43:02.576Z,39.78
2023-04-29T17:45:40.022Z,40.85
2023-04-29T17:48:06.892Z,56.72
2023-04-29T17:50:34.349Z,63.83
2023-04-29T17:53:03.668Z,52.47
2023-04-29T17:55:30.993Z,51.20
2023-04-29T17:58:00.545Z,54.60
2023-04-29T18:00:31.222Z,51.55
2023-04-29T18:02:58.198Z,51.50
2023-04-29T18:05:25.384Z,50.33
2023-04-29T18:07:52.252Z,56.40
2023-04-29T18:10:19.242Z,86.25
2023-04-29T18:12:47.362Z,95.22
2023-04-29T18:17:58.548Z,63.75
2023-04-29T18:20:25.431Z,45.72
2023-04-29T18:22:52.109Z,46.42
2023-04-29T18:25:21.200Z,45.88
2023-04-29T18:27:48.032Z,74.70
2023-04-29T18:30:14.859Z,58.30
2023-04-29T18:32:42.112Z,80.20
2023-04-29T18:35:18.982Z,79.43
2023-04-29T18:38:04.346Z,117.50
2023-04-29T18:40:44.132Z,152.82
2023-04-29T18:43:20.465Z,139.50
2023-04-29T18:45:59.941Z,86.95
2023-04-29T18:48:40.520Z,64.47
2023-04-29T18:51:26.264Z,60.78
2023-04-29T18:56:46.420Z,51.95
2023-04-29T18:59:23.431Z,50.25
2023-04-29T19:01:53.288Z,53.92
2023-04-29T19:04:29.198Z,46.17
2023-04-29T19:06:59.895Z,43.55
2023-04-29T19:12:15.119Z,40.15
2023-04-29T19:14:57.944Z,51.13
2023-04-29T19:18:04.663Z,70.97
2023-04-29T19:20:30.167Z,54.45
2023-04-29T19:22:57.050Z,43.90
2023-04-29T19:25:25.924Z,65.93
2023-04-29T19:27:53.216Z,66.28
2023-04-29T19:30:20.261Z,64.35
2023-04-29T19:32:47.592Z,80.55
2023-04-29T19:35:14.453Z,79.25
2023-04-29T19:37:50.447Z,69.05
2023-04-29T19:40:17.323Z,52.03
2023-04-29T19:42:44.385Z,54.35
2023-04-29T19:45:15.079Z,50.15
2023-04-29T19:47:43.510Z,55.05
2023-04-29T19:50:10.497Z,52.70
2023-04-29T19:52:37.289Z,55.28
2023-04-29T19:55:04.949Z,53.85
2023-04-29T19:57:33.096Z,64.00
2023-04-29T19:59:59.875Z,66.50
2023-04-29T20:02:27.073Z,72.75
2023-04-29T20:04:53.876Z,59.80
2023-04-29T20:07:20.695Z,65.78
2023-04-29T20:09:48.432Z,61.45
2023-04-29T20:12:15.170Z,57.63
2023-04-29T20:14:41.930Z,55.90
2023-04-29T20:17:08.746Z,56.65
2023-04-29T20:19:35.514Z,57.50
2023-04-29T20:22:02.437Z,58.67
2023-04-29T20:24:29.286Z,59.97
2023-04-29T20:26:56.077Z,60.72
2023-04-29T20:29:22.977Z,61.55
2023-04-29T20:31:49.730Z,63.55
2023-04-29T20:34:16.484Z,56.58
2023-04-29T20:36:43.260Z,55.75
2023-04-29T20:39:10.083Z,58.45
2023-04-29T20:41:37.056Z,55.92
2023-04-29T20:44:04.442Z,54.70
2023-04-29T20:46:33.079Z,57.92
2023-04-29T20:48:59.804Z,55.05
2023-04-29T20:51:26.974Z,50.65
2023-04-29T20:53:53.874Z,45.85
2023-04-29T20:56:20.741Z,43.40
2023-04-29T20:58:47.491Z,43.22
2023-04-29T21:01:14.336Z,39.55
2023-04-29T21:03:41.518Z,38.47
2023-04-29T21:06:08.436Z,56.72
2023-04-29T21:08:35.169Z,50.63
2023-04-29T21:11:01.976Z,52.72
2023-04-29T21:13:28.647Z,55.35
2023-04-29T21:15:55.353Z,57.28
2023-04-29T21:18:22.212Z,60.80
2023-04-29T21:20:49.022Z,61.92
2023-04-29T21:23:15.744Z,61.28
2023-04-29T21:25:42.437Z,61.53
2023-04-29T21:28:09.145Z,62.38
2023-04-29T21:30:36.050Z,64.28
2023-04-29T21:33:03.459Z,65.47
2023-04-29T21:35:30.717Z,68.00
2023-04-29T21:37:57.522Z,66.00
2023-04-29T21:40:26.422Z,64.93
2023-04-29T21:42:55.275Z,62.50
2023-04-29T21:45:22.146Z,65.68
2023-04-29T21:47:48.992Z,64.72
2023-04-29T21:50:15.843Z,65.55
2023-04-29T21:52:42.932Z,71.30
2023-04-29T21:55:09.883Z,71.13
2023-04-29T21:57:44.538Z,68.55
2023-04-29T22:00:28.239Z,65.60
2023-04-29T22:02:55.111Z,67.38
2023-04-29T22:05:21.802Z,65.70
2023-04-29T22:07:48.495Z,67.80
2023-04-29T22:10:15.349Z,65.30
2023-04-29T22:12:42.022Z,60.97
2023-04-29T22:15:17.052Z,62.30
2023-04-29T22:17:54.332Z,67.85
2023-04-29T22:20:21.269Z,63.30
2023-04-29T22:22:47.958Z,65.45
2023-04-29T22:25:14.785Z,70.00
2023-04-29T22:27:41.650Z,67.07
2023-04-29T22:30:08.936Z,63.20
2023-04-29T22:32:35.946Z,63.15
2023-04-29T22:35:02.715Z,66.03
2023-04-29T22:37:29.522Z,62.60
2023-04-29T22:39:56.934Z,61.03
2023-04-29T22:42:24.070Z,62.70
2023-04-29T22:44:52.139Z,60.65
2023-04-29T22:47:18.839Z,61.03
2023-04-29T22:49:46.351Z,63.33
2023-04-29T22:52:13.258Z,66.95
2023-04-29T22:54:39.968Z,64.60
2023-04-29T22:57:07.465Z,63.38
2023-04-29T22:59:34.294Z,57.65
2023-04-29T23:02:01.050Z,61.33
2023-04-29T23:04:27.825Z,64.47
2023-04-29T23:06:54.577Z,58.60
2023-04-29T23:09:21.428Z,60.92
2023-04-29T23:11:48.173Z,59.78
2023-04-29T23:14:14.954Z,56.53
2023-04-29T23:16:42.684Z,59.38
2023-04-29T23:19:09.382Z,60.25
2023-04-29T23:21:36.155Z,61.28
2023-04-29T23:24:03.030Z,62.63
2023-04-29T23:26:29.711Z,62.13
2023-04-29T23:28:56.435Z,52.28
2023-04-29T23:31:23.201Z,58.80
2023-04-29T23:33:49.955Z,54.92
2023-04-29T23:36:16.925Z,60.78
2023-04-29T23:38:43.758Z,55.55
2023-04-29T23:41:10.463Z,59.42
2023-04-29T23:43:37.267Z,63.88
2023-04-29T23:46:04.150Z,58.50
2023-04-29T23:48:30.991Z,56.88
2023-04-29T23:50:57.779Z,60.50
2023-04-29T23:53:24.466Z,61.75
2023-04-29T23:55:51.371Z,64.97
2023-04-29T23:58:18.138Z,64.40
